sensor_id;sensor_type;location;lat;lon;timestamp;P1;durP1;ratioP1;P2;durP2;ratioP2
44048;SDS011;29717;47.028;15.470;2022-12-18T00:01:29;20.57;;;15.90;;
44048;SDS011;29717;47.028;15.470;2022-12-18T00:03:58;25.83;;;18.03;;
44048;SDS011;29717;47.028;15.470;2022-12-18T00:06:27;23.67;;;16.40;;
44048;SDS011;29717;47.028;15.470;2022-12-18T00:08:54;21.33;;;16.03;;
44048;SDS011;29717;47.028;15.470;2022-12-18T00:11:22;21.57;;;16.13;;
44048;SDS011;29717;47.028;15.470;2022-12-18T00:13:49;20.73;;;16.23;;
44048;SDS011;29717;47.028;15.470;2022-12-18T00:16:17;22.30;;;17.13;;
44048;SDS011;29717;47.028;15.470;2022-12-18T00:18:45;22.93;;;17.30;;
44048;SDS011;29717;47.028;15.470;2022-12-18T00:21:12;21.03;;;16.30;;
44048;SDS011;29717;47.028;15.470;2022-12-18T00:23:41;24.23;;;17.27;;
44048;SDS011;29717;47.028;15.470;2022-12-18T00:26:10;22.63;;;17.03;;
44048;SDS011;29717;47.028;15.470;2022-12-18T00:28:37;23.83;;;18.63;;
44048;SDS011;29717;47.028;15.470;2022-12-18T00:31:04;26.03;;;18.77;;
44048;SDS011;29717;47.028;15.470;2022-12-18T00:33:32;28.10;;;19.20;;
44048;SDS011;29717;47.028;15.470;2022-12-18T00:36:00;25.60;;;18.97;;
44048;SDS011;29717;47.028;15.470;2022-12-18T00:38:27;29.10;;;19.93;;
44048;SDS011;29717;47.028;15.470;2022-12-18T00:40:55;24.93;;;18.30;;
44048;SDS011;29717;47.028;15.470;2022-12-18T00:43:22;28.87;;;19.07;;
44048;SDS011;29717;47.028;15.470;2022-12-18T00:45:48;26.23;;;19.07;;
44048;SDS011;29717;47.028;15.470;2022-12-18T00:48:15;28.93;;;20.47;;
44048;SDS011;29717;47.028;15.470;2022-12-18T00:50:42;29.47;;;21.33;;
44048;SDS011;29717;47.028;15.470;2022-12-18T00:53:09;27.83;;;19.97;;
44048;SDS011;29717;47.028;15.470;2022-12-18T00:55:37;27.10;;;19.57;;
44048;SDS011;29717;47.028;15.470;2022-12-18T00:58:06;28.50;;;19.87;;
44048;SDS011;29717;47.028;15.470;2022-12-18T01:00:32;28.67;;;20.93;;
44048;SDS011;29717;47.028;15.470;2022-12-18T01:02:59;29.63;;;20.73;;
44048;SDS011;29717;47.028;15.470;2022-12-18T01:05:26;27.97;;;20.50;;
44048;SDS011;29717;47.028;15.470;2022-12-18T01:07:53;25.10;;;19.23;;
44048;SDS011;29717;47.028;15.470;2022-12-18T01:10:20;24.83;;;19.27;;
44048;SDS011;29717;47.028;15.470;2022-12-18T01:12:47;26.10;;;18.87;;
44048;SDS011;29717;47.028;15.470;2022-12-18T01:15:15;27.20;;;19.37;;
44048;SDS011;29717;47.028;15.470;2022-12-18T01:17:42;26.27;;;17.77;;
44048;SDS011;29717;47.028;15.470;2022-12-18T01:20:10;23.07;;;16.80;;
44048;SDS011;29717;47.028;15.470;2022-12-18T01:22:37;20.50;;;15.43;;
44048;SDS011;29717;47.028;15.470;2022-12-18T01:25:04;22.43;;;15.57;;
44048;SDS011;29717;47.028;15.470;2022-12-18T01:27:33;20.53;;;15.00;;
44048;SDS011;29717;47.028;15.470;2022-12-18T01:30:00;18.27;;;13.17;;
44048;SDS011;29717;47.028;15.470;2022-12-18T01:32:30;19.37;;;14.07;;
44048;SDS011;29717;47.028;15.470;2022-12-18T01:34:57;18.73;;;13.93;;
44048;SDS011;29717;47.028;15.470;2022-12-18T01:37:24;21.53;;;14.83;;
44048;SDS011;29717;47.028;15.470;2022-12-18T01:39:52;19.07;;;14.77;;
44048;SDS011;29717;47.028;15.470;2022-12-18T01:42:19;19.93;;;14.23;;
44048;SDS011;29717;47.028;15.470;2022-12-18T01:44:54;18.60;;;13.67;;
44048;SDS011;29717;47.028;15.470;2022-12-18T01:47:22;18.33;;;13.47;;
44048;SDS011;29717;47.028;15.470;2022-12-18T01:49:52;18.80;;;13.50;;
44048;SDS011;29717;47.028;15.470;2022-12-18T01:52:19;19.17;;;13.93;;
44048;SDS011;29717;47.028;15.470;2022-12-18T01:54:47;20.27;;;14.27;;
44048;SDS011;29717;47.028;15.470;2022-12-18T01:57:15;20.07;;;13.73;;
44048;SDS011;29717;47.028;15.470;2022-12-18T01:59:42;21.87;;;15.60;;
44048;SDS011;29717;47.028;15.470;2022-12-18T02:02:17;26.50;;;16.90;;
44048;SDS011;29717;47.028;15.470;2022-12-18T02:04:46;26.93;;;18.40;;
44048;SDS011;29717;47.028;15.470;2022-12-18T02:07:19;26.03;;;17.93;;
44048;SDS011;29717;47.028;15.470;2022-12-18T02:09:50;34.87;;;23.13;;
44048;SDS011;29717;47.028;15.470;2022-12-18T02:12:27;33.87;;;21.87;;
44048;SDS011;29717;47.028;15.470;2022-12-18T02:14:58;29.40;;;20.33;;
44048;SDS011;29717;47.028;15.470;2022-12-18T02:17:30;30.97;;;20.47;;
44048;SDS011;29717;47.028;15.470;2022-12-18T02:20:01;30.60;;;20.43;;
44048;SDS011;29717;47.028;15.470;2022-12-18T02:22:36;28.70;;;19.53;;
44048;SDS011;29717;47.028;15.470;2022-12-18T02:25:18;29.93;;;20.17;;
44048;SDS011;29717;47.028;15.470;2022-12-18T02:27:52;32.60;;;22.60;;
44048;SDS011;29717;47.028;15.470;2022-12-18T02:30:33;32.77;;;22.03;;
44048;SDS011;29717;47.028;15.470;2022-12-18T02:33:02;29.90;;;20.17;;
44048;SDS011;29717;47.028;15.470;2022-12-18T02:35:35;28.47;;;20.47;;
44048;SDS011;29717;47.028;15.470;2022-12-18T02:38:09;30.63;;;20.77;;
44048;SDS011;29717;47.028;15.470;2022-12-18T02:40:36;32.50;;;20.60;;
44048;SDS011;29717;47.028;15.470;2022-12-18T02:43:08;29.30;;;19.93;;
44048;SDS011;29717;47.028;15.470;2022-12-18T02:45:36;30.60;;;20.57;;
44048;SDS011;29717;47.028;15.470;2022-12-18T02:48:03;29.40;;;20.37;;
44048;SDS011;29717;47.028;15.470;2022-12-18T02:50:31;32.57;;;20.90;;
44048;SDS011;29717;47.028;15.470;2022-12-18T02:53:03;28.63;;;20.10;;
44048;SDS011;29717;47.028;15.470;2022-12-18T02:55:34;27.83;;;20.07;;
44048;SDS011;29717;47.028;15.470;2022-12-18T02:58:09;31.70;;;21.57;;
44048;SDS011;29717;47.028;15.470;2022-12-18T03:00:39;31.60;;;21.93;;
44048;SDS011;29717;47.028;15.470;2022-12-18T03:03:09;37.97;;;23.47;;
44048;SDS011;29717;47.028;15.470;2022-12-18T03:05:38;39.63;;;23.33;;
44048;SDS011;29717;47.028;15.470;2022-12-18T03:08:07;38.20;;;23.97;;
44048;SDS011;29717;47.028;15.470;2022-12-18T03:10:37;36.80;;;24.27;;
44048;SDS011;29717;47.028;15.470;2022-12-18T03:13:06;43.73;;;24.53;;
44048;SDS011;29717;47.028;15.470;2022-12-18T03:15:37;36.50;;;23.00;;
44048;SDS011;29717;47.028;15.470;2022-12-18T03:18:06;41.13;;;24.13;;
44048;SDS011;29717;47.028;15.470;2022-12-18T03:20:35;32.13;;;22.47;;
44048;SDS011;29717;47.028;15.470;2022-12-18T03:23:06;39.17;;;24.20;;
44048;SDS011;29717;47.028;15.470;2022-12-18T03:25:34;37.77;;;24.97;;
44048;SDS011;29717;47.028;15.470;2022-12-18T03:28:03;37.00;;;24.47;;
44048;SDS011;29717;47.028;15.470;2022-12-18T03:30:33;38.50;;;25.67;;
44048;SDS011;29717;47.028;15.470;2022-12-18T03:33:07;36.73;;;25.67;;
44048;SDS011;29717;47.028;15.470;2022-12-18T03:35:35;38.73;;;26.07;;
44048;SDS011;29717;47.028;15.470;2022-12-18T03:38:04;38.70;;;26.30;;
44048;SDS011;29717;47.028;15.470;2022-12-18T03:40:31;38.20;;;25.53;;
44048;SDS011;29717;47.028;15.470;2022-12-18T03:43:01;35.97;;;23.20;;
44048;SDS011;29717;47.028;15.470;2022-12-18T03:45:31;35.83;;;24.10;;
44048;SDS011;29717;47.028;15.470;2022-12-18T03:48:00;37.33;;;24.27;;
44048;SDS011;29717;47.028;15.470;2022-12-18T03:50:33;33.97;;;22.50;;
44048;SDS011;29717;47.028;15.470;2022-12-18T03:53:04;33.20;;;22.77;;
44048;SDS011;29717;47.028;15.470;2022-12-18T03:55:33;34.03;;;22.90;;
44048;SDS011;29717;47.028;15.470;2022-12-18T03:58:01;35.07;;;23.33;;
44048;SDS011;29717;47.028;15.470;2022-12-18T04:00:29;32.43;;;22.43;;
44048;SDS011;29717;47.028;15.470;2022-12-18T04:02:56;33.50;;;23.07;;
44048;SDS011;29717;47.028;15.470;2022-12-18T04:05:24;37.87;;;22.77;;
44048;SDS011;29717;47.028;15.470;2022-12-18T04:07:53;35.63;;;23.63;;
44048;SDS011;29717;47.028;15.470;2022-12-18T04:10:21;37.27;;;22.60;;
44048;SDS011;29717;47.028;15.470;2022-12-18T04:12:47;33.40;;;22.07;;
44048;SDS011;29717;47.028;15.470;2022-12-18T04:15:14;34.80;;;22.20;;
44048;SDS011;29717;47.028;15.470;2022-12-18T04:17:43;32.57;;;22.23;;
44048;SDS011;29717;47.028;15.470;2022-12-18T04:20:12;38.43;;;23.90;;
44048;SDS011;29717;47.028;15.470;2022-12-18T04:22:39;33.20;;;21.77;;
44048;SDS011;29717;47.028;15.470;2022-12-18T04:25:08;32.53;;;22.03;;
44048;SDS011;29717;47.028;15.470;2022-12-18T04:27:37;34.43;;;22.17;;
44048;SDS011;29717;47.028;15.470;2022-12-18T04:30:05;36.87;;;22.93;;
44048;SDS011;29717;47.028;15.470;2022-12-18T04:32:32;33.67;;;21.80;;
44048;SDS011;29717;47.028;15.470;2022-12-18T04:34:59;39.80;;;24.37;;
44048;SDS011;29717;47.028;15.470;2022-12-18T04:37:26;41.83;;;25.63;;
44048;SDS011;29717;47.028;15.470;2022-12-18T04:39:53;40.37;;;25.07;;
44048;SDS011;29717;47.028;15.470;2022-12-18T04:42:21;39.77;;;25.10;;
44048;SDS011;29717;47.028;15.470;2022-12-18T04:44:48;42.73;;;26.03;;
44048;SDS011;29717;47.028;15.470;2022-12-18T04:47:15;40.80;;;26.37;;
44048;SDS011;29717;47.028;15.470;2022-12-18T04:49:42;40.87;;;26.10;;
44048;SDS011;29717;47.028;15.470;2022-12-18T04:52:08;39.17;;;25.20;;
44048;SDS011;29717;47.028;15.470;2022-12-18T04:54:35;51.80;;;25.43;;
44048;SDS011;29717;47.028;15.470;2022-12-18T04:57:02;51.00;;;24.60;;
44048;SDS011;29717;47.028;15.470;2022-12-18T04:59:30;257.70;;;32.30;;
44048;SDS011;29717;47.028;15.470;2022-12-18T05:01:57;59.00;;;23.87;;
44048;SDS011;29717;47.028;15.470;2022-12-18T05:04:24;149.43;;;28.07;;
44048;SDS011;29717;47.028;15.470;2022-12-18T05:06:50;193.23;;;30.47;;
44048;SDS011;29717;47.028;15.470;2022-12-18T05:09:17;41.27;;;23.37;;
44048;SDS011;29717;47.028;15.470;2022-12-18T05:11:44;55.13;;;24.43;;
44048;SDS011;29717;47.028;15.470;2022-12-18T05:14:12;149.53;;;28.00;;
44048;SDS011;29717;47.028;15.470;2022-12-18T05:16:40;122.87;;;26.83;;
44048;SDS011;29717;47.028;15.470;2022-12-18T05:19:07;164.60;;;27.43;;
44048;SDS011;29717;47.028;15.470;2022-12-18T05:21:34;102.90;;;26.00;;
44048;SDS011;29717;47.028;15.470;2022-12-18T05:24:01;193.03;;;29.50;;
44048;SDS011;29717;47.028;15.470;2022-12-18T05:26:27;39.53;;;23.63;;
44048;SDS011;29717;47.028;15.470;2022-12-18T05:28:54;50.27;;;22.90;;
44048;SDS011;29717;47.028;15.470;2022-12-18T05:31:23;64.40;;;23.67;;
44048;SDS011;29717;47.028;15.470;2022-12-18T05:33:56;69.43;;;22.83;;
44048;SDS011;29717;47.028;15.470;2022-12-18T05:36:22;94.47;;;24.33;;
44048;SDS011;29717;47.028;15.470;2022-12-18T05:38:49;69.00;;;22.50;;
44048;SDS011;29717;47.028;15.470;2022-12-18T05:41:16;59.00;;;22.33;;
44048;SDS011;29717;47.028;15.470;2022-12-18T05:43:43;93.03;;;24.87;;
44048;SDS011;29717;47.028;15.470;2022-12-18T05:46:14;84.27;;;24.80;;
44048;SDS011;29717;47.028;15.470;2022-12-18T05:48:43;58.13;;;23.33;;
44048;SDS011;29717;47.028;15.470;2022-12-18T05:51:18;63.43;;;22.20;;
44048;SDS011;29717;47.028;15.470;2022-12-18T05:53:51;60.80;;;24.00;;
44048;SDS011;29717;47.028;15.470;2022-12-18T05:56:22;68.63;;;24.50;;
44048;SDS011;29717;47.028;15.470;2022-12-18T05:58:52;59.50;;;24.67;;
44048;SDS011;29717;47.028;15.470;2022-12-18T06:01:26;104.63;;;27.53;;
44048;SDS011;29717;47.028;15.470;2022-12-18T06:03:55;53.47;;;24.27;;
44048;SDS011;29717;47.028;15.470;2022-12-18T06:06:33;45.53;;;23.93;;
44048;SDS011;29717;47.028;15.470;2022-12-18T06:09:03;54.50;;;24.60;;
44048;SDS011;29717;47.028;15.470;2022-12-18T06:11:34;41.33;;;23.63;;
44048;SDS011;29717;47.028;15.470;2022-12-18T06:14:06;39.57;;;24.73;;
44048;SDS011;29717;47.028;15.470;2022-12-18T06:16:33;79.07;;;25.70;;
44048;SDS011;29717;47.028;15.470;2022-12-18T06:19:12;50.37;;;24.70;;
44048;SDS011;29717;47.028;15.470;2022-12-18T06:21:56;46.20;;;26.47;;
44048;SDS011;29717;47.028;15.470;2022-12-18T06:24:25;42.70;;;26.37;;
44048;SDS011;29717;47.028;15.470;2022-12-18T06:26:57;38.53;;;25.00;;
44048;SDS011;29717;47.028;15.470;2022-12-18T06:29:28;42.33;;;25.23;;
44048;SDS011;29717;47.028;15.470;2022-12-18T06:31:56;37.67;;;26.03;;
44048;SDS011;29717;47.028;15.470;2022-12-18T06:34:23;39.13;;;25.90;;
44048;SDS011;29717;47.028;15.470;2022-12-18T06:36:50;38.90;;;26.37;;
44048;SDS011;29717;47.028;15.470;2022-12-18T06:39:18;45.33;;;28.47;;
44048;SDS011;29717;47.028;15.470;2022-12-18T06:41:48;43.87;;;27.83;;
44048;SDS011;29717;47.028;15.470;2022-12-18T06:44:23;53.77;;;34.97;;
44048;SDS011;29717;47.028;15.470;2022-12-18T06:46:55;80.63;;;47.73;;
44048;SDS011;29717;47.028;15.470;2022-12-18T06:49:24;66.57;;;41.17;;
44048;SDS011;29717;47.028;15.470;2022-12-18T06:52:15;45.20;;;29.17;;
44048;SDS011;29717;47.028;15.470;2022-12-18T06:54:54;36.03;;;23.93;;
44048;SDS011;29717;47.028;15.470;2022-12-18T06:57:25;37.00;;;24.63;;
44048;SDS011;29717;47.028;15.470;2022-12-18T07:00:06;30.67;;;22.40;;
44048;SDS011;29717;47.028;15.470;2022-12-18T07:02:42;29.67;;;20.60;;
44048;SDS011;29717;47.028;15.470;2022-12-18T07:05:17;32.27;;;22.37;;
44048;SDS011;29717;47.028;15.470;2022-12-18T07:07:51;29.97;;;21.27;;
44048;SDS011;29717;47.028;15.470;2022-12-18T07:10:30;28.40;;;20.33;;
44048;SDS011;29717;47.028;15.470;2022-12-18T07:13:00;27.57;;;19.43;;
44048;SDS011;29717;47.028;15.470;2022-12-18T07:15:38;29.83;;;20.13;;
44048;SDS011;29717;47.028;15.470;2022-12-18T07:18:11;29.87;;;20.10;;
44048;SDS011;29717;47.028;15.470;2022-12-18T07:20:53;26.93;;;19.33;;
44048;SDS011;29717;47.028;15.470;2022-12-18T07:23:32;25.37;;;18.90;;
44048;SDS011;29717;47.028;15.470;2022-12-18T07:26:18;31.10;;;22.90;;
44048;SDS011;29717;47.028;15.470;2022-12-18T07:28:48;32.50;;;23.87;;
44048;SDS011;29717;47.028;15.470;2022-12-18T07:31:28;29.77;;;22.37;;
44048;SDS011;29717;47.028;15.470;2022-12-18T07:34:02;29.97;;;21.83;;
44048;SDS011;29717;47.028;15.470;2022-12-18T07:36:43;30.17;;;20.97;;
44048;SDS011;29717;47.028;15.470;2022-12-18T07:39:11;26.37;;;19.30;;
44048;SDS011;29717;47.028;15.470;2022-12-18T07:41:53;24.90;;;17.87;;
44048;SDS011;29717;47.028;15.470;2022-12-18T07:44:34;27.07;;;17.77;;
44048;SDS011;29717;47.028;15.470;2022-12-18T07:47:04;18.93;;;14.70;;
44048;SDS011;29717;47.028;15.470;2022-12-18T07:49:37;14.53;;;11.10;;
44048;SDS011;29717;47.028;15.470;2022-12-18T07:52:06;15.30;;;9.93;;
44048;SDS011;29717;47.028;15.470;2022-12-18T07:54:34;16.70;;;11.93;;
44048;SDS011;29717;47.028;15.470;2022-12-18T07:57:06;14.53;;;11.13;;
44048;SDS011;29717;47.028;15.470;2022-12-18T07:59:36;16.50;;;12.77;;
44048;SDS011;29717;47.028;15.470;2022-12-18T08:02:15;19.53;;;13.90;;
44048;SDS011;29717;47.028;15.470;2022-12-18T08:04:42;17.00;;;12.50;;
44048;SDS011;29717;47.028;15.470;2022-12-18T08:07:09;16.33;;;12.23;;
44048;SDS011;29717;47.028;15.470;2022-12-18T08:09:36;17.63;;;12.47;;
44048;SDS011;29717;47.028;15.470;2022-12-18T08:12:10;16.90;;;12.63;;
44048;SDS011;29717;47.028;15.470;2022-12-18T08:14:41;15.50;;;12.27;;
44048;SDS011;29717;47.028;15.470;2022-12-18T08:17:11;17.67;;;12.30;;
44048;SDS011;29717;47.028;15.470;2022-12-18T08:19:38;17.07;;;12.30;;
44048;SDS011;29717;47.028;15.470;2022-12-18T08:22:05;16.00;;;11.20;;
44048;SDS011;29717;47.028;15.470;2022-12-18T08:24:32;16.53;;;11.37;;
44048;SDS011;29717;47.028;15.470;2022-12-18T08:26:59;15.50;;;10.57;;
44048;SDS011;29717;47.028;15.470;2022-12-18T08:29:27;15.33;;;10.97;;
44048;SDS011;29717;47.028;15.470;2022-12-18T08:31:59;17.50;;;11.80;;
44048;SDS011;29717;47.028;15.470;2022-12-18T08:34:25;16.30;;;12.03;;
44048;SDS011;29717;47.028;15.470;2022-12-18T08:36:52;13.40;;;10.70;;
44048;SDS011;29717;47.028;15.470;2022-12-18T08:39:19;16.80;;;10.67;;
44048;SDS011;29717;47.028;15.470;2022-12-18T08:41:46;16.03;;;11.87;;
44048;SDS011;29717;47.028;15.470;2022-12-18T08:44:38;17.43;;;11.63;;
44048;SDS011;29717;47.028;15.470;2022-12-18T08:47:04;14.23;;;10.53;;
44048;SDS011;29717;47.028;15.470;2022-12-18T08:49:32;12.90;;;10.00;;
44048;SDS011;29717;47.028;15.470;2022-12-18T08:51:59;16.30;;;10.60;;
44048;SDS011;29717;47.028;15.470;2022-12-18T08:54:26;15.60;;;11.33;;
44048;SDS011;29717;47.028;15.470;2022-12-18T08:56:53;12.93;;;10.37;;
44048;SDS011;29717;47.028;15.470;2022-12-18T08:59:19;12.93;;;10.30;;
44048;SDS011;29717;47.028;15.470;2022-12-18T09:01:47;15.23;;;11.07;;
44048;SDS011;29717;47.028;15.470;2022-12-18T09:04:14;14.97;;;10.80;;
44048;SDS011;29717;47.028;15.470;2022-12-18T09:06:41;11.93;;;9.77;;
44048;SDS011;29717;47.028;15.470;2022-12-18T09:09:09;14.23;;;9.87;;
44048;SDS011;29717;47.028;15.470;2022-12-18T09:11:36;13.17;;;10.50;;
44048;SDS011;29717;47.028;15.470;2022-12-18T09:14:03;15.13;;;11.43;;
44048;SDS011;29717;47.028;15.470;2022-12-18T09:16:29;15.20;;;11.37;;
44048;SDS011;29717;47.028;15.470;2022-12-18T09:18:58;14.77;;;11.33;;
44048;SDS011;29717;47.028;15.470;2022-12-18T09:21:26;15.67;;;11.27;;
44048;SDS011;29717;47.028;15.470;2022-12-18T09:23:53;14.83;;;11.63;;
44048;SDS011;29717;47.028;15.470;2022-12-18T09:26:21;15.33;;;11.67;;
44048;SDS011;29717;47.028;15.470;2022-12-18T09:28:48;15.70;;;10.67;;
44048;SDS011;29717;47.028;15.470;2022-12-18T09:31:15;12.13;;;10.03;;
44048;SDS011;29717;47.028;15.470;2022-12-18T09:33:42;14.73;;;10.80;;
44048;SDS011;29717;47.028;15.470;2022-12-18T09:36:12;15.27;;;10.97;;
44048;SDS011;29717;47.028;15.470;2022-12-18T09:38:39;14.13;;;10.83;;
44048;SDS011;29717;47.028;15.470;2022-12-18T09:41:13;14.37;;;11.03;;
44048;SDS011;29717;47.028;15.470;2022-12-18T09:43:45;15.13;;;11.30;;
44048;SDS011;29717;47.028;15.470;2022-12-18T09:46:16;16.70;;;12.57;;
44048;SDS011;29717;47.028;15.470;2022-12-18T09:48:44;19.23;;;13.30;;
44048;SDS011;29717;47.028;15.470;2022-12-18T09:51:15;20.57;;;13.23;;
44048;SDS011;29717;47.028;15.470;2022-12-18T09:53:42;18.33;;;13.63;;
44048;SDS011;29717;47.028;15.470;2022-12-18T09:56:12;21.20;;;14.60;;
44048;SDS011;29717;47.028;15.470;2022-12-18T09:58:42;21.57;;;15.10;;
44048;SDS011;29717;47.028;15.470;2022-12-18T10:01:11;24.50;;;16.73;;
44048;SDS011;29717;47.028;15.470;2022-12-18T10:03:38;24.07;;;16.97;;
44048;SDS011;29717;47.028;15.470;2022-12-18T10:06:06;22.10;;;15.77;;
44048;SDS011;29717;47.028;15.470;2022-12-18T10:08:39;23.80;;;17.33;;
44048;SDS011;29717;47.028;15.470;2022-12-18T10:11:24;26.50;;;19.83;;
44048;SDS011;29717;47.028;15.470;2022-12-18T10:13:54;28.43;;;20.17;;
44048;SDS011;29717;47.028;15.470;2022-12-18T10:16:25;29.80;;;20.20;;
44048;SDS011;29717;47.028;15.470;2022-12-18T10:18:59;30.17;;;19.90;;
44048;SDS011;29717;47.028;15.470;2022-12-18T10:21:30;26.30;;;19.17;;
44048;SDS011;29717;47.028;15.470;2022-12-18T10:24:01;27.97;;;20.10;;
44048;SDS011;29717;47.028;15.470;2022-12-18T10:26:29;28.03;;;19.90;;
44048;SDS011;29717;47.028;15.470;2022-12-18T10:28:58;30.27;;;21.57;;
44048;SDS011;29717;47.028;15.470;2022-12-18T10:31:25;32.67;;;22.80;;
44048;SDS011;29717;47.028;15.470;2022-12-18T10:33:53;34.37;;;22.93;;
44048;SDS011;29717;47.028;15.470;2022-12-18T10:36:20;33.40;;;22.93;;
44048;SDS011;29717;47.028;15.470;2022-12-18T10:38:47;33.97;;;21.60;;
44048;SDS011;29717;47.028;15.470;2022-12-18T10:41:25;34.40;;;20.67;;
44048;SDS011;29717;47.028;15.470;2022-12-18T10:44:11;34.60;;;23.17;;
44048;SDS011;29717;47.028;15.470;2022-12-18T10:46:38;33.67;;;22.10;;
44048;SDS011;29717;47.028;15.470;2022-12-18T10:49:05;33.87;;;22.93;;
44048;SDS011;29717;47.028;15.470;2022-12-18T10:51:32;33.60;;;23.67;;
44048;SDS011;29717;47.028;15.470;2022-12-18T10:54:00;35.07;;;23.50;;
44048;SDS011;29717;47.028;15.470;2022-12-18T10:56:30;32.97;;;22.87;;
44048;SDS011;29717;47.028;15.470;2022-12-18T10:58:58;33.00;;;22.87;;
44048;SDS011;29717;47.028;15.470;2022-12-18T11:01:26;31.63;;;22.17;;
44048;SDS011;29717;47.028;15.470;2022-12-18T11:04:00;32.83;;;23.17;;
44048;SDS011;29717;47.028;15.470;2022-12-18T11:06:28;35.73;;;23.73;;
44048;SDS011;29717;47.028;15.470;2022-12-18T11:08:58;35.37;;;24.33;;
44048;SDS011;29717;47.028;15.470;2022-12-18T11:11:26;33.80;;;23.30;;
44048;SDS011;29717;47.028;15.470;2022-12-18T11:13:59;36.83;;;24.37;;
44048;SDS011;29717;47.028;15.470;2022-12-18T11:16:42;38.93;;;25.17;;
44048;SDS011;29717;47.028;15.470;2022-12-18T11:19:19;33.87;;;23.13;;
44048;SDS011;29717;47.028;15.470;2022-12-18T11:21:53;39.60;;;24.67;;
44048;SDS011;29717;47.028;15.470;2022-12-18T11:24:23;41.03;;;25.73;;
44048;SDS011;29717;47.028;15.470;2022-12-18T11:26:54;36.77;;;24.17;;
44048;SDS011;29717;47.028;15.470;2022-12-18T11:29:30;38.67;;;25.57;;
44048;SDS011;29717;47.028;15.470;2022-12-18T11:32:22;37.93;;;25.43;;
44048;SDS011;29717;47.028;15.470;2022-12-18T11:34:52;38.20;;;25.67;;
44048;SDS011;29717;47.028;15.470;2022-12-18T11:37:22;36.43;;;24.30;;
44048;SDS011;29717;47.028;15.470;2022-12-18T11:39:50;39.17;;;25.77;;
44048;SDS011;29717;47.028;15.470;2022-12-18T11:42:20;43.33;;;27.30;;
44048;SDS011;29717;47.028;15.470;2022-12-18T11:44:50;44.63;;;28.60;;
44048;SDS011;29717;47.028;15.470;2022-12-18T11:47:23;40.97;;;26.30;;
44048;SDS011;29717;47.028;15.470;2022-12-18T11:49:52;45.53;;;28.23;;
44048;SDS011;29717;47.028;15.470;2022-12-18T11:52:21;42.90;;;27.83;;
44048;SDS011;29717;47.028;15.470;2022-12-18T11:54:51;40.67;;;26.60;;
44048;SDS011;29717;47.028;15.470;2022-12-18T11:57:20;35.47;;;24.90;;
44048;SDS011;29717;47.028;15.470;2022-12-18T11:59:52;38.57;;;25.67;;
44048;SDS011;29717;47.028;15.470;2022-12-18T12:02:36;38.13;;;25.47;;
44048;SDS011;29717;47.028;15.470;2022-12-18T12:05:14;39.97;;;27.67;;
44048;SDS011;29717;47.028;15.470;2022-12-18T12:07:46;39.20;;;27.07;;
44048;SDS011;29717;47.028;15.470;2022-12-18T12:10:18;37.73;;;26.77;;
44048;SDS011;29717;47.028;15.470;2022-12-18T12:12:54;38.93;;;25.70;;
44048;SDS011;29717;47.028;15.470;2022-12-18T12:15:28;39.80;;;25.93;;
44048;SDS011;29717;47.028;15.470;2022-12-18T12:17:58;41.63;;;26.60;;
44048;SDS011;29717;47.028;15.470;2022-12-18T12:20:31;40.20;;;26.00;;
44048;SDS011;29717;47.028;15.470;2022-12-18T12:23:04;38.73;;;25.00;;
44048;SDS011;29717;47.028;15.470;2022-12-18T12:25:33;39.33;;;24.33;;
44048;SDS011;29717;47.028;15.470;2022-12-18T12:28:14;40.43;;;25.33;;
44048;SDS011;29717;47.028;15.470;2022-12-18T12:30:48;35.80;;;24.00;;
44048;SDS011;29717;47.028;15.470;2022-12-18T12:33:22;36.57;;;24.23;;
44048;SDS011;29717;47.028;15.470;2022-12-18T12:35:56;39.27;;;24.40;;
44048;SDS011;29717;47.028;15.470;2022-12-18T12:38:28;38.97;;;24.83;;
44048;SDS011;29717;47.028;15.470;2022-12-18T12:41:00;40.10;;;25.83;;
44048;SDS011;29717;47.028;15.470;2022-12-18T12:43:31;43.90;;;26.20;;
44048;SDS011;29717;47.028;15.470;2022-12-18T12:46:00;38.67;;;25.97;;
44048;SDS011;29717;47.028;15.470;2022-12-18T12:48:37;41.20;;;26.37;;
44048;SDS011;29717;47.028;15.470;2022-12-18T12:51:09;42.53;;;26.27;;
44048;SDS011;29717;47.028;15.470;2022-12-18T12:53:37;43.00;;;26.23;;
44048;SDS011;29717;47.028;15.470;2022-12-18T12:56:05;40.77;;;25.33;;
44048;SDS011;29717;47.028;15.470;2022-12-18T12:58:33;43.43;;;26.07;;
44048;SDS011;29717;47.028;15.470;2022-12-18T13:01:08;39.20;;;26.47;;
44048;SDS011;29717;47.028;15.470;2022-12-18T13:03:41;40.57;;;25.00;;
44048;SDS011;29717;47.028;15.470;2022-12-18T13:06:11;43.50;;;26.57;;
44048;SDS011;29717;47.028;15.470;2022-12-18T13:08:51;38.50;;;24.53;;
44048;SDS011;29717;47.028;15.470;2022-12-18T13:11:28;42.20;;;27.20;;
44048;SDS011;29717;47.028;15.470;2022-12-18T13:14:20;48.30;;;27.47;;
44048;SDS011;29717;47.028;15.470;2022-12-18T13:16:48;39.67;;;25.27;;
44048;SDS011;29717;47.028;15.470;2022-12-18T13:19:20;43.13;;;25.97;;
44048;SDS011;29717;47.028;15.470;2022-12-18T13:21:51;41.57;;;25.87;;
44048;SDS011;29717;47.028;15.470;2022-12-18T13:24:22;42.60;;;26.13;;
44048;SDS011;29717;47.028;15.470;2022-12-18T13:26:49;41.73;;;25.33;;
44048;SDS011;29717;47.028;15.470;2022-12-18T13:29:39;43.10;;;27.33;;
44048;SDS011;29717;47.028;15.470;2022-12-18T13:32:20;44.07;;;26.83;;
44048;SDS011;29717;47.028;15.470;2022-12-18T13:34:47;45.30;;;27.93;;
44048;SDS011;29717;47.028;15.470;2022-12-18T13:39:59;41.63;;;26.00;;
44048;SDS011;29717;47.028;15.470;2022-12-18T13:42:38;41.47;;;25.83;;
44048;SDS011;29717;47.028;15.470;2022-12-18T13:45:42;44.10;;;26.80;;
44048;SDS011;29717;47.028;15.470;2022-12-18T13:51:00;43.20;;;28.23;;
44048;SDS011;29717;47.028;15.470;2022-12-18T13:53:30;41.40;;;25.87;;
44048;SDS011;29717;47.028;15.470;2022-12-18T13:55:58;43.27;;;25.77;;
44048;SDS011;29717;47.028;15.470;2022-12-18T13:58:25;40.23;;;26.70;;
44048;SDS011;29717;47.028;15.470;2022-12-18T14:00:52;40.10;;;25.13;;
44048;SDS011;29717;47.028;15.470;2022-12-18T14:03:20;33.90;;;21.40;;
44048;SDS011;29717;47.028;15.470;2022-12-18T14:05:52;35.30;;;23.23;;
44048;SDS011;29717;47.028;15.470;2022-12-18T14:08:21;35.70;;;22.77;;
44048;SDS011;29717;47.028;15.470;2022-12-18T14:10:51;33.37;;;22.57;;
44048;SDS011;29717;47.028;15.470;2022-12-18T14:13:20;33.80;;;23.20;;
44048;SDS011;29717;47.028;15.470;2022-12-18T14:15:48;37.40;;;25.10;;
44048;SDS011;29717;47.028;15.470;2022-12-18T14:18:18;41.17;;;25.43;;
44048;SDS011;29717;47.028;15.470;2022-12-18T14:20:45;36.80;;;23.07;;
44048;SDS011;29717;47.028;15.470;2022-12-18T14:23:26;42.23;;;25.87;;
44048;SDS011;29717;47.028;15.470;2022-12-18T14:25:53;39.53;;;24.87;;
44048;SDS011;29717;47.028;15.470;2022-12-18T14:28:20;34.70;;;22.00;;
44048;SDS011;29717;47.028;15.470;2022-12-18T14:30:48;34.97;;;22.37;;
44048;SDS011;29717;47.028;15.470;2022-12-18T14:33:16;34.63;;;22.70;;